Kline, South Carolina
Current Conditions -  °F | °C
As of 7:15 AM on Friday 19 Dec 2014 (Local Time) from KBNL Reporting Station
NA  
Wind Chill:   Ceiling: NA
Heat Index:   Visibility: NA
Dew Point:   Wind: 0mph
Humidity: 100%   Direction: NA
Pressure: 30.13"   Gusts: NA
Location:  33.2109°N, 81.3471°W
Report Text: KBNL 191215Z AUTO 00000KT 01/01 A3013 RMK AO2
Loading
Personal Weather Stations






























Interactive Weather Map New forecast layout! Learn more

10-Day Weather Forecast

Advertisements
Track Severe Weather on mobile